Fairfax, IA

8:32 PM CST on January 26, 2015 (GMT -0600)
IADOT Cedar Rapids (US 30) | Change Station
CLOSE
Current Station
Personal Weather Station
Location: Cedar Rapids, IA
Elevation: 807 ft
Nearby Weather Stations

Elev 807 ft 41.93 °N, 91.68 °W | Updated 32 minutes ago

Overcast
Overcast
40 °F
Feels Like 36 °F
N
6
Wind Variable Wind from West
Gusts 13.0 mph

Today
High -- | Low -- °F
--% Chance of Precip.
Yesterday
High -- | Low -- °F
Precip. -- in
7:25 AM 5:14 PM
Waxing Crescent, 49% visible
Pressure 29.89 in
Visibility 10.0 miles
Clouds Overcast 4900 ft
Windchill 36 °F
Dew Point 37 °F
Humidity 90%
Rainfall -999.00 in
Snow Depth Not available.
UV 0 out of 12
Pollen .10 out of 12
Air Quality Not available.
Flu Activity Not available.
METAR KCID 270152Z 31010KT 10SM OVC049 03/02 A2986 RMK AO2 SLP121 T00330017

More Conditions Fewer Conditions

Pressure 29.89 in
Visibility 10.0 miles
Clouds Overcast 4900 ft
Windchill 36 °F
Dew Point 37 °F
Humidity 90%
Rainfall -999.00 in
Snow Depth Not available.
UV 0 out of 12
Pollen .10 out of 12
Air Quality Not available.
Flu Activity Not available.
METAR KCID 270152Z 31010KT 10SM OVC049 03/02 A2986 RMK AO2 SLP121 T00330017

More Conditions Fewer Conditions

10-Day Weather Forecast

Almanac

Astronomy

Jan. 26, 2015 Rise Set
Actual Time
Civil Twilight
Nautical Twilight
Astronomical Twilight
Moon
Length of Visible Light
Length of Day
Tomorrow will be .
, % of the Moon is Illuminated

Today's Extremes

State Highs State Lows

Community

WunderPhotos

Upload Photos

1,790,478 photos uploaded!

WunderBlogs® & News

Nearby

Air Quality

  Air Quality AQ Index Pollutant
Not available.

Snow Depth

Station Depth Elevation

Earthquake Activity

City Distance Mag. Time & Date
Minimum magnitude displayed is 2.5.

Coastal Water Temperatures

Place Temperature

Nearby Weather Stations